sensor_id;sensor_type;location;lat;lon;timestamp;temperature;humidity
4406;DHT22;2216;53.806;11.598;2022-12-11T00:01:37;-4.40;80.40
4406;DHT22;2216;53.806;11.598;2022-12-11T00:04:02;-4.40;81.20
4406;DHT22;2216;53.806;11.598;2022-12-11T00:06:28;-4.40;80.50
4406;DHT22;2216;53.806;11.598;2022-12-11T00:08:54;-4.50;80.40
4406;DHT22;2216;53.806;11.598;2022-12-11T00:11:20;-4.40;80.50
4406;DHT22;2216;53.806;11.598;2022-12-11T00:13:46;-4.40;80.50
4406;DHT22;2216;53.806;11.598;2022-12-11T00:16:12;-4.50;80.40
4406;DHT22;2216;53.806;11.598;2022-12-11T00:18:38;-4.50;80.40
4406;DHT22;2216;53.806;11.598;2022-12-11T00:21:06;-4.50;80.50
4406;DHT22;2216;53.806;11.598;2022-12-11T00:23:34;-4.50;80.50
4406;DHT22;2216;53.806;11.598;2022-12-11T00:26:04;-4.50;80.50
4406;DHT22;2216;53.806;11.598;2022-12-11T00:28:31;-4.60;80.40
4406;DHT22;2216;53.806;11.598;2022-12-11T00:30:58;-4.60;80.40
4406;DHT22;2216;53.806;11.598;2022-12-11T00:33:28;-4.60;80.40
4406;DHT22;2216;53.806;11.598;2022-12-11T00:35:53;-4.60;80.40
4406;DHT22;2216;53.806;11.598;2022-12-11T00:38:20;-4.60;80.40
4406;DHT22;2216;53.806;11.598;2022-12-11T00:40:47;-4.60;80.40
4406;DHT22;2216;53.806;11.598;2022-12-11T00:43:14;-4.70;80.40
4406;DHT22;2216;53.806;11.598;2022-12-11T00:45:42;-4.60;80.40
4406;DHT22;2216;53.806;11.598;2022-12-11T00:48:10;-4.60;80.50
4406;DHT22;2216;53.806;11.598;2022-12-11T00:50:37;-4.70;80.40
4406;DHT22;2216;53.806;11.598;2022-12-11T00:53:05;-4.50;80.50
4406;DHT22;2216;53.806;11.598;2022-12-11T00:55:36;-4.70;80.40
4406;DHT22;2216;53.806;11.598;2022-12-11T00:58:03;-4.70;80.40
4406;DHT22;2216;53.806;11.598;2022-12-11T01:00:29;-4.70;80.40
4406;DHT22;2216;53.806;11.598;2022-12-11T01:02:54;-4.80;80.40
4406;DHT22;2216;53.806;11.598;2022-12-11T01:05:20;-4.80;80.30
4406;DHT22;2216;53.806;11.598;2022-12-11T01:07:46;-4.80;80.30
4406;DHT22;2216;53.806;11.598;2022-12-11T01:10:12;-4.80;80.30
4406;DHT22;2216;53.806;11.598;2022-12-11T01:13:05;-4.80;80.30
4406;DHT22;2216;53.806;11.598;2022-12-11T01:15:39;-4.90;80.20
4406;DHT22;2216;53.806;11.598;2022-12-11T01:18:06;-4.90;80.20
4406;DHT22;2216;53.806;11.598;2022-12-11T01:20:32;-5.00;80.20
4406;DHT22;2216;53.806;11.598;2022-12-11T01:22:59;-5.00;80.20
4406;DHT22;2216;53.806;11.598;2022-12-11T01:25:26;-5.00;80.90
4406;DHT22;2216;53.806;11.598;2022-12-11T01:27:53;-5.00;80.20
4406;DHT22;2216;53.806;11.598;2022-12-11T01:30:21;-5.00;80.10
4406;DHT22;2216;53.806;11.598;2022-12-11T01:32:48;-5.10;80.10
4406;DHT22;2216;53.806;11.598;2022-12-11T01:35:15;-5.10;80.10
4406;DHT22;2216;53.806;11.598;2022-12-11T01:37:41;-5.10;80.10
4406;DHT22;2216;53.806;11.598;2022-12-11T01:40:09;-5.10;80.20
4406;DHT22;2216;53.806;11.598;2022-12-11T01:42:37;-5.20;80.00
4406;DHT22;2216;53.806;11.598;2022-12-11T01:47:54;-5.20;80.10
4406;DHT22;2216;53.806;11.598;2022-12-11T01:50:23;-5.20;80.20
4406;DHT22;2216;53.806;11.598;2022-12-11T01:52:49;-5.20;80.20
4406;DHT22;2216;53.806;11.598;2022-12-11T01:55:15;-5.30;80.10
4406;DHT22;2216;53.806;11.598;2022-12-11T01:57:44;-5.30;80.10
4406;DHT22;2216;53.806;11.598;2022-12-11T02:00:12;-5.30;80.20
4406;DHT22;2216;53.806;11.598;2022-12-11T02:02:38;-5.30;80.20
4406;DHT22;2216;53.806;11.598;2022-12-11T02:05:05;-5.30;80.10
4406;DHT22;2216;53.806;11.598;2022-12-11T02:07:36;-5.40;80.10
4406;DHT22;2216;53.806;11.598;2022-12-11T02:10:05;-5.40;80.10
4406;DHT22;2216;53.806;11.598;2022-12-11T02:15:59;-5.40;80.10
4406;DHT22;2216;53.806;11.598;2022-12-11T02:22:09;-5.50;80.10
4406;DHT22;2216;53.806;11.598;2022-12-11T02:27:50;-5.50;80.10
4406;DHT22;2216;53.806;11.598;2022-12-11T02:30:22;-5.50;80.20
4406;DHT22;2216;53.806;11.598;2022-12-11T02:32:57;-5.60;80.10
4406;DHT22;2216;53.806;11.598;2022-12-11T02:35:34;-5.60;80.10
4406;DHT22;2216;53.806;11.598;2022-12-11T02:38:19;-5.60;80.20
4406;DHT22;2216;53.806;11.598;2022-12-11T02:40:51;-5.60;80.10
4406;DHT22;2216;53.806;11.598;2022-12-11T02:43:18;-5.60;80.10
4406;DHT22;2216;53.806;11.598;2022-12-11T02:45:45;-5.70;80.10
4406;DHT22;2216;53.806;11.598;2022-12-11T02:48:13;-5.70;80.00
4406;DHT22;2216;53.806;11.598;2022-12-11T02:50:44;-5.70;80.00
4406;DHT22;2216;53.806;11.598;2022-12-11T02:53:12;-5.70;80.00
4406;DHT22;2216;53.806;11.598;2022-12-11T02:55:43;-5.80;79.90
4406;DHT22;2216;53.806;11.598;2022-12-11T02:58:18;-5.80;79.90
4406;DHT22;2216;53.806;11.598;2022-12-11T03:00:46;-5.80;80.00
4406;DHT22;2216;53.806;11.598;2022-12-11T03:03:13;-5.90;79.90
4406;DHT22;2216;53.806;11.598;2022-12-11T03:05:39;-5.90;79.90
4406;DHT22;2216;53.806;11.598;2022-12-11T03:08:06;-5.90;79.80
4406;DHT22;2216;53.806;11.598;2022-12-11T03:10:32;-5.90;79.90
4406;DHT22;2216;53.806;11.598;2022-12-11T03:12:59;-6.00;79.90
4406;DHT22;2216;53.806;11.598;2022-12-11T03:15:40;-6.00;80.00
4406;DHT22;2216;53.806;11.598;2022-12-11T03:18:33;-6.00;80.00
4406;DHT22;2216;53.806;11.598;2022-12-11T03:21:08;-6.00;80.00
4406;DHT22;2216;53.806;11.598;2022-12-11T03:24:04;-6.00;80.10
4406;DHT22;2216;53.806;11.598;2022-12-11T03:26:41;-6.00;80.10
4406;DHT22;2216;53.806;11.598;2022-12-11T03:29:17;-6.00;80.20
4406;DHT22;2216;53.806;11.598;2022-12-11T03:31:49;-6.10;80.10
4406;DHT22;2216;53.806;11.598;2022-12-11T03:34:24;-6.10;80.20
4406;DHT22;2216;53.806;11.598;2022-12-11T03:36:55;-6.10;80.20
4406;DHT22;2216;53.806;11.598;2022-12-11T03:39:25;-6.10;80.10
4406;DHT22;2216;53.806;11.598;2022-12-11T03:41:55;-6.10;80.10
4406;DHT22;2216;53.806;11.598;2022-12-11T03:44:23;-6.10;80.10
4406;DHT22;2216;53.806;11.598;2022-12-11T03:46:49;-6.10;80.10
4406;DHT22;2216;53.806;11.598;2022-12-11T03:49:19;-6.10;80.20
4406;DHT22;2216;53.806;11.598;2022-12-11T03:51:49;-6.10;80.20
4406;DHT22;2216;53.806;11.598;2022-12-11T03:54:16;-6.10;80.20
4406;DHT22;2216;53.806;11.598;2022-12-11T03:56:43;-6.10;80.20
4406;DHT22;2216;53.806;11.598;2022-12-11T03:59:10;-6.10;80.20
4406;DHT22;2216;53.806;11.598;2022-12-11T04:01:36;-6.10;80.30
4406;DHT22;2216;53.806;11.598;2022-12-11T04:04:02;-6.10;80.40
4406;DHT22;2216;53.806;11.598;2022-12-11T04:06:27;-6.10;80.40
4406;DHT22;2216;53.806;11.598;2022-12-11T04:08:53;-6.10;80.40
4406;DHT22;2216;53.806;11.598;2022-12-11T04:11:19;-6.10;80.40
4406;DHT22;2216;53.806;11.598;2022-12-11T04:14:05;-6.10;81.10
4406;DHT22;2216;53.806;11.598;2022-12-11T04:16:51;-6.10;80.40
4406;DHT22;2216;53.806;11.598;2022-12-11T04:19:17;-6.10;80.50
4406;DHT22;2216;53.806;11.598;2022-12-11T04:22:02;-6.00;80.60
4406;DHT22;2216;53.806;11.598;2022-12-11T04:24:47;-6.00;80.70
4406;DHT22;2216;53.806;11.598;2022-12-11T04:27:14;-6.00;80.80
4406;DHT22;2216;53.806;11.598;2022-12-11T04:30:02;-5.90;80.90
4406;DHT22;2216;53.806;11.598;2022-12-11T04:32:29;-5.90;81.00
4406;DHT22;2216;53.806;11.598;2022-12-11T04:34:55;-5.80;81.10
4406;DHT22;2216;53.806;11.598;2022-12-11T04:37:20;-5.80;81.10
4406;DHT22;2216;53.806;11.598;2022-12-11T04:39:46;-5.60;81.20
4406;DHT22;2216;53.806;11.598;2022-12-11T04:42:12;-5.70;81.20
4406;DHT22;2216;53.806;11.598;2022-12-11T04:44:37;-5.60;81.30
4406;DHT22;2216;53.806;11.598;2022-12-11T04:47:03;-5.60;81.40
4406;DHT22;2216;53.806;11.598;2022-12-11T04:49:29;-5.50;81.50
4406;DHT22;2216;53.806;11.598;2022-12-11T04:51:54;-5.40;81.70
4406;DHT22;2216;53.806;11.598;2022-12-11T04:54:20;-5.40;81.70
4406;DHT22;2216;53.806;11.598;2022-12-11T04:56:45;-5.30;81.70
4406;DHT22;2216;53.806;11.598;2022-12-11T04:59:11;-5.20;81.80
4406;DHT22;2216;53.806;11.598;2022-12-11T05:01:37;-5.10;81.80
4406;DHT22;2216;53.806;11.598;2022-12-11T05:04:02;-5.10;81.80
4406;DHT22;2216;53.806;11.598;2022-12-11T05:06:28;-5.00;81.90
4406;DHT22;2216;53.806;11.598;2022-12-11T05:08:54;-4.90;81.90
4406;DHT22;2216;53.806;11.598;2022-12-11T05:11:19;-4.80;81.90
4406;DHT22;2216;53.806;11.598;2022-12-11T05:13:45;-4.80;81.90
4406;DHT22;2216;53.806;11.598;2022-12-11T05:16:13;-4.70;82.00
4406;DHT22;2216;53.806;11.598;2022-12-11T05:18:42;-4.70;82.00
4406;DHT22;2216;53.806;11.598;2022-12-11T05:21:10;-4.60;81.90
4406;DHT22;2216;53.806;11.598;2022-12-11T05:23:37;-4.50;82.00
4406;DHT22;2216;53.806;11.598;2022-12-11T05:26:06;-4.50;81.90
4406;DHT22;2216;53.806;11.598;2022-12-11T05:28:35;-4.40;82.00
4406;DHT22;2216;53.806;11.598;2022-12-11T05:31:04;-4.30;82.00
4406;DHT22;2216;53.806;11.598;2022-12-11T05:33:32;-4.20;82.10
4406;DHT22;2216;53.806;11.598;2022-12-11T05:35:58;-4.20;82.00
4406;DHT22;2216;53.806;11.598;2022-12-11T05:38:25;-4.10;82.00
4406;DHT22;2216;53.806;11.598;2022-12-11T05:41:01;-4.00;82.00
4406;DHT22;2216;53.806;11.598;2022-12-11T05:43:30;-4.00;82.00
4406;DHT22;2216;53.806;11.598;2022-12-11T05:46:12;-3.90;82.00
4406;DHT22;2216;53.806;11.598;2022-12-11T05:48:38;-3.80;82.00
4406;DHT22;2216;53.806;11.598;2022-12-11T05:51:05;-3.80;82.00
4406;DHT22;2216;53.806;11.598;2022-12-11T05:53:33;-3.70;82.00
4406;DHT22;2216;53.806;11.598;2022-12-11T05:56:02;-3.60;82.10
4406;DHT22;2216;53.806;11.598;2022-12-11T05:58:29;-3.40;82.10
4406;DHT22;2216;53.806;11.598;2022-12-11T06:00:55;-3.60;82.00
4406;DHT22;2216;53.806;11.598;2022-12-11T06:03:20;-3.50;82.00
4406;DHT22;2216;53.806;11.598;2022-12-11T06:05:46;-3.50;81.90
4406;DHT22;2216;53.806;11.598;2022-12-11T06:08:12;-3.40;81.90
4406;DHT22;2216;53.806;11.598;2022-12-11T06:10:37;-3.40;81.80
4406;DHT22;2216;53.806;11.598;2022-12-11T06:13:09;-3.30;81.90
4406;DHT22;2216;53.806;11.598;2022-12-11T06:15:35;-3.20;81.90
4406;DHT22;2216;53.806;11.598;2022-12-11T06:18:01;-3.20;81.90
4406;DHT22;2216;53.806;11.598;2022-12-11T06:20:30;-3.20;81.80
4406;DHT22;2216;53.806;11.598;2022-12-11T06:22:56;-3.10;81.90
4406;DHT22;2216;53.806;11.598;2022-12-11T06:25:22;-3.10;81.80
4406;DHT22;2216;53.806;11.598;2022-12-11T06:27:49;-3.00;81.80
4406;DHT22;2216;53.806;11.598;2022-12-11T06:30:14;-2.90;81.80
4406;DHT22;2216;53.806;11.598;2022-12-11T06:32:41;-3.00;81.80
4406;DHT22;2216;53.806;11.598;2022-12-11T06:35:08;-2.90;81.80
4406;DHT22;2216;53.806;11.598;2022-12-11T06:37:34;-2.90;81.70
4406;DHT22;2216;53.806;11.598;2022-12-11T06:40:02;-2.90;81.70
4406;DHT22;2216;53.806;11.598;2022-12-11T06:42:30;-2.80;81.70
4406;DHT22;2216;53.806;11.598;2022-12-11T06:44:56;-2.80;81.60
4406;DHT22;2216;53.806;11.598;2022-12-11T06:47:28;-2.80;81.60
4406;DHT22;2216;53.806;11.598;2022-12-11T06:49:54;-2.80;81.50
4406;DHT22;2216;53.806;11.598;2022-12-11T06:52:21;-2.70;81.60
4406;DHT22;2216;53.806;11.598;2022-12-11T06:54:48;-2.70;81.60
4406;DHT22;2216;53.806;11.598;2022-12-11T06:57:13;-2.70;81.50
4406;DHT22;2216;53.806;11.598;2022-12-11T06:59:39;-2.70;81.60
4406;DHT22;2216;53.806;11.598;2022-12-11T07:02:05;-2.70;81.50
4406;DHT22;2216;53.806;11.598;2022-12-11T07:04:31;-2.70;81.50
4406;DHT22;2216;53.806;11.598;2022-12-11T07:06:57;-2.60;81.60
4406;DHT22;2216;53.806;11.598;2022-12-11T07:09:23;-2.60;81.50
4406;DHT22;2216;53.806;11.598;2022-12-11T07:11:52;-2.60;81.50
4406;DHT22;2216;53.806;11.598;2022-12-11T07:14:18;-2.60;81.50
4406;DHT22;2216;53.806;11.598;2022-12-11T07:16:44;-2.60;81.50
4406;DHT22;2216;53.806;11.598;2022-12-11T07:19:10;-2.60;81.50
4406;DHT22;2216;53.806;11.598;2022-12-11T07:21:36;-2.60;81.50
4406;DHT22;2216;53.806;11.598;2022-12-11T07:24:02;-2.50;81.60
4406;DHT22;2216;53.806;11.598;2022-12-11T07:26:28;-2.50;81.60
4406;DHT22;2216;53.806;11.598;2022-12-11T07:28:57;-2.50;81.60
4406;DHT22;2216;53.806;11.598;2022-12-11T07:31:25;-2.50;81.60
4406;DHT22;2216;53.806;11.598;2022-12-11T07:33:57;-2.40;81.70
4406;DHT22;2216;53.806;11.598;2022-12-11T07:36:24;-2.40;81.70
4406;DHT22;2216;53.806;11.598;2022-12-11T07:38:51;-2.40;81.70
4406;DHT22;2216;53.806;11.598;2022-12-11T07:41:17;-2.30;81.70
4406;DHT22;2216;53.806;11.598;2022-12-11T07:43:43;-2.30;81.70
4406;DHT22;2216;53.806;11.598;2022-12-11T07:46:13;-2.30;81.70
4406;DHT22;2216;53.806;11.598;2022-12-11T07:48:44;-2.30;81.70
4406;DHT22;2216;53.806;11.598;2022-12-11T07:51:18;-2.20;81.80
4406;DHT22;2216;53.806;11.598;2022-12-11T07:53:48;-2.20;81.70
4406;DHT22;2216;53.806;11.598;2022-12-11T07:56:16;-2.20;81.70
4406;DHT22;2216;53.806;11.598;2022-12-11T07:58:42;-2.20;81.70
4406;DHT22;2216;53.806;11.598;2022-12-11T08:01:12;-2.10;81.80
4406;DHT22;2216;53.806;11.598;2022-12-11T08:03:42;-2.10;81.80
4406;DHT22;2216;53.806;11.598;2022-12-11T08:06:08;-2.10;81.80
4406;DHT22;2216;53.806;11.598;2022-12-11T08:08:34;-2.00;81.80
4406;DHT22;2216;53.806;11.598;2022-12-11T08:11:01;-2.00;81.80
4406;DHT22;2216;53.806;11.598;2022-12-11T08:13:27;-2.00;81.80
4406;DHT22;2216;53.806;11.598;2022-12-11T08:15:52;-2.00;81.80
4406;DHT22;2216;53.806;11.598;2022-12-11T08:18:18;-1.90;81.80
4406;DHT22;2216;53.806;11.598;2022-12-11T08:20:44;-1.90;81.90
4406;DHT22;2216;53.806;11.598;2022-12-11T08:23:10;-1.90;81.90
4406;DHT22;2216;53.806;11.598;2022-12-11T08:25:35;-1.80;81.90
4406;DHT22;2216;53.806;11.598;2022-12-11T08:28:01;-1.80;81.90
4406;DHT22;2216;53.806;11.598;2022-12-11T08:30:27;-1.80;81.90
4406;DHT22;2216;53.806;11.598;2022-12-11T08:32:53;-1.70;81.90
4406;DHT22;2216;53.806;11.598;2022-12-11T08:35:18;-1.80;81.90
4406;DHT22;2216;53.806;11.598;2022-12-11T08:37:44;-1.70;81.90
4406;DHT22;2216;53.806;11.598;2022-12-11T08:40:10;-1.60;82.00
4406;DHT22;2216;53.806;11.598;2022-12-11T08:42:37;-1.60;82.10
4406;DHT22;2216;53.806;11.598;2022-12-11T08:45:03;-1.60;82.00
4406;DHT22;2216;53.806;11.598;2022-12-11T08:47:29;-1.60;82.10
4406;DHT22;2216;53.806;11.598;2022-12-11T08:49:55;-1.50;82.10
4406;DHT22;2216;53.806;11.598;2022-12-11T08:52:21;-1.50;82.10
4406;DHT22;2216;53.806;11.598;2022-12-11T08:54:47;-1.50;82.00
4406;DHT22;2216;53.806;11.598;2022-12-11T08:57:13;-1.50;82.00
4406;DHT22;2216;53.806;11.598;2022-12-11T08:59:38;-1.40;82.10
4406;DHT22;2216;53.806;11.598;2022-12-11T09:02:04;-1.40;82.00
4406;DHT22;2216;53.806;11.598;2022-12-11T09:04:30;-1.30;82.10
4406;DHT22;2216;53.806;11.598;2022-12-11T09:06:56;-1.30;82.10
4406;DHT22;2216;53.806;11.598;2022-12-11T09:09:21;-1.30;82.10
4406;DHT22;2216;53.806;11.598;2022-12-11T09:11:47;-1.30;82.10
4406;DHT22;2216;53.806;11.598;2022-12-11T09:14:13;-1.30;82.10
4406;DHT22;2216;53.806;11.598;2022-12-11T09:16:40;-1.20;82.10
4406;DHT22;2216;53.806;11.598;2022-12-11T09:19:08;-1.20;82.10
4406;DHT22;2216;53.806;11.598;2022-12-11T09:21:37;-1.20;82.10
4406;DHT22;2216;53.806;11.598;2022-12-11T09:24:03;-1.20;82.10
4406;DHT22;2216;53.806;11.598;2022-12-11T09:26:29;-1.10;82.30
4406;DHT22;2216;53.806;11.598;2022-12-11T09:28:56;-1.10;82.30
4406;DHT22;2216;53.806;11.598;2022-12-11T09:31:25;-1.00;82.30
4406;DHT22;2216;53.806;11.598;2022-12-11T09:33:54;-1.00;82.30
4406;DHT22;2216;53.806;11.598;2022-12-11T09:36:21;-0.90;82.30
4406;DHT22;2216;53.806;11.598;2022-12-11T09:38:47;-0.90;82.30
4406;DHT22;2216;53.806;11.598;2022-12-11T09:46:50;-0.80;82.30
4406;DHT22;2216;53.806;11.598;2022-12-11T09:52:29;-0.80;82.20
4406;DHT22;2216;53.806;11.598;2022-12-11T09:54:59;-0.80;82.20
4406;DHT22;2216;53.806;11.598;2022-12-11T10:00:47;-0.70;82.20
4406;DHT22;2216;53.806;11.598;2022-12-11T10:09:48;-0.70;82.20
4406;DHT22;2216;53.806;11.598;2022-12-11T10:12:50;-0.60;82.90
4406;DHT22;2216;53.806;11.598;2022-12-11T10:18:22;-0.50;82.30
4406;DHT22;2216;53.806;11.598;2022-12-11T10:20:51;-0.50;82.30
4406;DHT22;2216;53.806;11.598;2022-12-11T10:23:26;-0.50;82.40
4406;DHT22;2216;53.806;11.598;2022-12-11T10:26:06;-0.40;82.40
4406;DHT22;2216;53.806;11.598;2022-12-11T10:28:35;-0.40;82.50
4406;DHT22;2216;53.806;11.598;2022-12-11T10:31:09;-0.40;82.40
4406;DHT22;2216;53.806;11.598;2022-12-11T10:34:02;-0.30;82.50
4406;DHT22;2216;53.806;11.598;2022-12-11T10:36:36;-0.30;82.50
4406;DHT22;2216;53.806;11.598;2022-12-11T10:39:14;-0.30;82.50
4406;DHT22;2216;53.806;11.598;2022-12-11T10:41:43;-0.30;82.40
4406;DHT22;2216;53.806;11.598;2022-12-11T10:44:30;-0.20;82.50
4406;DHT22;2216;53.806;11.598;2022-12-11T10:47:17;-0.20;82.40
4406;DHT22;2216;53.806;11.598;2022-12-11T10:49:53;-0.20;82.40
4406;DHT22;2216;53.806;11.598;2022-12-11T10:52:26;-0.20;82.40
4406;DHT22;2216;53.806;11.598;2022-12-11T10:55:06;-0.20;82.30
4406;DHT22;2216;53.806;11.598;2022-12-11T10:57:42;-0.20;82.20
4406;DHT22;2216;53.806;11.598;2022-12-11T11:00:27;-0.10;82.30
4406;DHT22;2216;53.806;11.598;2022-12-11T11:02:59;-0.10;82.30
4406;DHT22;2216;53.806;11.598;2022-12-11T11:05:38;-0.10;82.30
4406;DHT22;2216;53.806;11.598;2022-12-11T11:08:14;-0.10;82.10
4406;DHT22;2216;53.806;11.598;2022-12-11T11:10:55;-0.10;82.20
4406;DHT22;2216;53.806;11.598;2022-12-11T11:13:25;0.00;82.20
4406;DHT22;2216;53.806;11.598;2022-12-11T11:16:05;-0.10;82.20
4406;DHT22;2216;53.806;11.598;2022-12-11T11:18:33;0.00;82.30
4406;DHT22;2216;53.806;11.598;2022-12-11T11:21:00;0.00;82.20
4406;DHT22;2216;53.806;11.598;2022-12-11T11:23:27;0.00;82.30
4406;DHT22;2216;53.806;11.598;2022-12-11T11:25:58;0.00;82.20
4406;DHT22;2216;53.806;11.598;2022-12-11T11:28:33;0.00;82.10
4406;DHT22;2216;53.806;11.598;2022-12-11T11:31:07;0.00;82.10
4406;DHT22;2216;53.806;11.598;2022-12-11T11:33:36;0.00;82.10
4406;DHT22;2216;53.806;11.598;2022-12-11T11:36:19;0.00;82.10
4406;DHT22;2216;53.806;11.598;2022-12-11T11:38:58;0.00;82.10
4406;DHT22;2216;53.806;11.598;2022-12-11T11:44:45;0.00;82.10
4406;DHT22;2216;53.806;11.598;2022-12-11T11:47:21;0.00;82.10
4406;DHT22;2216;53.806;11.598;2022-12-11T11:50:17;0.00;82.10
4406;DHT22;2216;53.806;11.598;2022-12-11T11:52:54;0.00;82.10
4406;DHT22;2216;53.806;11.598;2022-12-11T11:55:42;0.00;82.10
4406;DHT22;2216;53.806;11.598;2022-12-11T11:58:21;0.00;82.10
4406;DHT22;2216;53.806;11.598;2022-12-11T12:00:53;0.00;82.10
4406;DHT22;2216;53.806;11.598;2022-12-11T12:03:21;0.20;82.30
4406;DHT22;2216;53.806;11.598;2022-12-11T12:06:13;0.10;82.30
4406;DHT22;2216;53.806;11.598;2022-12-11T12:09:29;0.10;82.30
4406;DHT22;2216;53.806;11.598;2022-12-11T12:15:09;0.20;82.40
4406;DHT22;2216;53.806;11.598;2022-12-11T12:17:53;0.30;82.40
4406;DHT22;2216;53.806;11.598;2022-12-11T12:26:33;0.30;82.30
4406;DHT22;2216;53.806;11.598;2022-12-11T12:29:07;0.30;82.20
4406;DHT22;2216;53.806;11.598;2022-12-11T12:32:20;0.30;82.20
4406;DHT22;2216;53.806;11.598;2022-12-11T12:40:35;0.30;82.00
4406;DHT22;2216;53.806;11.598;2022-12-11T12:46:16;0.30;82.00
4406;DHT22;2216;53.806;11.598;2022-12-11T12:48:48;0.30;82.00
4406;DHT22;2216;53.806;11.598;2022-12-11T12:51:15;0.30;81.90
4406;DHT22;2216;53.806;11.598;2022-12-11T12:53:48;0.20;81.90
4406;DHT22;2216;53.806;11.598;2022-12-11T12:56:18;0.30;82.00
4406;DHT22;2216;53.806;11.598;2022-12-11T12:58:45;0.20;81.90
4406;DHT22;2216;53.806;11.598;2022-12-11T13:03:49;0.30;82.00
4406;DHT22;2216;53.806;11.598;2022-12-11T13:06:45;0.20;81.90
4406;DHT22;2216;53.806;11.598;2022-12-11T13:09:22;0.30;82.00
4406;DHT22;2216;53.806;11.598;2022-12-11T13:11:52;0.40;82.10
4406;DHT22;2216;53.806;11.598;2022-12-11T13:14:27;0.30;82.70
4406;DHT22;2216;53.806;11.598;2022-12-11T13:19:47;0.30;82.00
4406;DHT22;2216;53.806;11.598;2022-12-11T13:27:35;0.30;82.00
4406;DHT22;2216;53.806;11.598;2022-12-11T13:33:07;0.30;81.80
4406;DHT22;2216;53.806;11.598;2022-12-11T13:35:40;0.20;81.80
4406;DHT22;2216;53.806;11.598;2022-12-11T13:38:14;0.20;81.80
4406;DHT22;2216;53.806;11.598;2022-12-11T13:40:43;0.20;81.80
4406;DHT22;2216;53.806;11.598;2022-12-11T13:43:21;0.20;81.70
4406;DHT22;2216;53.806;11.598;2022-12-11T13:46:01;0.20;81.70
4406;DHT22;2216;53.806;11.598;2022-12-11T13:48:37;0.20;81.70
4406;DHT22;2216;53.806;11.598;2022-12-11T13:51:05;0.20;81.70
4406;DHT22;2216;53.806;11.598;2022-12-11T13:53:32;0.20;81.70
4406;DHT22;2216;53.806;11.598;2022-12-11T13:56:03;0.20;81.80
4406;DHT22;2216;53.806;11.598;2022-12-11T13:58:37;0.20;81.80
4406;DHT22;2216;53.806;11.598;2022-12-11T14:01:16;0.20;81.80
4406;DHT22;2216;53.806;11.598;2022-12-11T14:03:54;0.20;81.70
4406;DHT22;2216;53.806;11.598;2022-12-11T14:06:23;0.20;81.80
4406;DHT22;2216;53.806;11.598;2022-12-11T14:08:53;0.20;81.70
4406;DHT22;2216;53.806;11.598;2022-12-11T14:11:22;0.10;81.60
4406;DHT22;2216;53.806;11.598;2022-12-11T14:13:53;0.10;81.60
4406;DHT22;2216;53.806;11.598;2022-12-11T14:16:22;0.10;81.60
4406;DHT22;2216;53.806;11.598;2022-12-11T14:18:50;0.10;81.60
4406;DHT22;2216;53.806;11.598;2022-12-11T14:21:19;0.10;81.60
4406;DHT22;2216;53.806;11.598;2022-12-11T14:23:54;0.10;81.50
4406;DHT22;2216;53.806;11.598;2022-12-11T14:26:28;0.10;81.60
4406;DHT22;2216;53.806;11.598;2022-12-11T14:28:55;0.10;81.50
4406;DHT22;2216;53.806;11.598;2022-12-11T14:34:20;0.10;81.50
4406;DHT22;2216;53.806;11.598;2022-12-11T14:36:59;0.10;81.50
4406;DHT22;2216;53.806;11.598;2022-12-11T14:39:45;0.00;81.50
4406;DHT22;2216;53.806;11.598;2022-12-11T14:42:19;0.10;81.60
4406;DHT22;2216;53.806;11.598;2022-12-11T14:44:57;0.10;81.60
4406;DHT22;2216;53.806;11.598;2022-12-11T14:47:31;0.00;81.50
4406;DHT22;2216;53.806;11.598;2022-12-11T14:50:06;0.00;81.50
4406;DHT22;2216;53.806;11.598;2022-12-11T14:52:41;0.00;81.50
4406;DHT22;2216;53.806;11.598;2022-12-11T14:58:21;0.00;81.40
4406;DHT22;2216;53.806;11.598;2022-12-11T15:06:17;-0.10;81.30
4406;DHT22;2216;53.806;11.598;2022-12-11T15:08:48;-0.10;81.20
4406;DHT22;2216;53.806;11.598;2022-12-11T15:11:16;-0.10;81.30
4406;DHT22;2216;53.806;11.598;2022-12-11T15:16:24;-0.20;81.30
4406;DHT22;2216;53.806;11.598;2022-12-11T15:18:52;-0.20;81.30
4406;DHT22;2216;53.806;11.598;2022-12-11T15:21:27;-0.20;81.30
4406;DHT22;2216;53.806;11.598;2022-12-11T15:23:56;-0.30;81.30
4406;DHT22;2216;53.806;11.598;2022-12-11T15:26:46;-0.20;81.30
4406;DHT22;2216;53.806;11.598;2022-12-11T15:29:37;-0.20;81.30
4406;DHT22;2216;53.806;11.598;2022-12-11T15:32:16;-0.20;81.30
4406;DHT22;2216;53.806;11.598;2022-12-11T15:34:49;-0.20;81.30
4406;DHT22;2216;53.806;11.598;2022-12-11T15:37:26;-0.30;81.20
4406;DHT22;2216;53.806;11.598;2022-12-11T15:39:58;-0.30;81.30
4406;DHT22;2216;53.806;11.598;2022-12-11T15:42:31;-0.30;81.20
4406;DHT22;2216;53.806;11.598;2022-12-11T15:45:00;-0.40;81.10
4406;DHT22;2216;53.806;11.598;2022-12-11T15:47:29;-0.30;81.20
4406;DHT22;2216;53.806;11.598;2022-12-11T15:50:23;-0.40;81.20
4406;DHT22;2216;53.806;11.598;2022-12-11T15:52:51;-0.40;81.20
4406;DHT22;2216;53.806;11.598;2022-12-11T15:55:18;-0.40;81.20
4406;DHT22;2216;53.806;11.598;2022-12-11T15:57:48;-0.40;81.20
4406;DHT22;2216;53.806;11.598;2022-12-11T16:00:17;-0.40;81.20
4406;DHT22;2216;53.806;11.598;2022-12-11T16:02:44;-0.50;81.20
4406;DHT22;2216;53.806;11.598;2022-12-11T16:05:10;-0.40;81.30
4406;DHT22;2216;53.806;11.598;2022-12-11T16:07:36;-0.40;81.30
4406;DHT22;2216;53.806;11.598;2022-12-11T16:10:03;-0.40;81.30
4406;DHT22;2216;53.806;11.598;2022-12-11T16:12:29;-0.50;81.30
4406;DHT22;2216;53.806;11.598;2022-12-11T16:14:55;-0.40;81.40
4406;DHT22;2216;53.806;11.598;2022-12-11T16:17:20;-0.40;81.40
4406;DHT22;2216;53.806;11.598;2022-12-11T16:19:46;-0.50;81.30
4406;DHT22;2216;53.806;11.598;2022-12-11T16:22:12;-0.50;81.40
4406;DHT22;2216;53.806;11.598;2022-12-11T16:24:38;-0.50;81.40
4406;DHT22;2216;53.806;11.598;2022-12-11T16:27:05;-0.50;81.40
4406;DHT22;2216;53.806;11.598;2022-12-11T16:29:39;-0.50;81.40
4406;DHT22;2216;53.806;11.598;2022-12-11T16:32:06;-0.50;81.40
4406;DHT22;2216;53.806;11.598;2022-12-11T16:34:34;-0.40;81.50
4406;DHT22;2216;53.806;11.598;2022-12-11T16:37:00;-0.40;81.40
4406;DHT22;2216;53.806;11.598;2022-12-11T16:39:26;-0.50;81.40
4406;DHT22;2216;53.806;11.598;2022-12-11T16:41:52;-0.40;81.50
4406;DHT22;2216;53.806;11.598;2022-12-11T16:44:20;-0.50;81.40
4406;DHT22;2216;53.806;11.598;2022-12-11T16:46:48;-0.50;81.40
4406;DHT22;2216;53.806;11.598;2022-12-11T16:49:13;-0.40;81.40
4406;DHT22;2216;53.806;11.598;2022-12-11T16:51:40;-0.50;81.40
4406;DHT22;2216;53.806;11.598;2022-12-11T16:54:06;-0.40;81.50
4406;DHT22;2216;53.806;11.598;2022-12-11T16:56:31;-0.40;81.50
4406;DHT22;2216;53.806;11.598;2022-12-11T16:58:59;-0.40;81.50
4406;DHT22;2216;53.806;11.598;2022-12-11T17:01:25;-0.40;81.50
4406;DHT22;2216;53.806;11.598;2022-12-11T17:03:51;-0.40;81.50
4406;DHT22;2216;53.806;11.598;2022-12-11T17:06:17;-0.40;81.50
4406;DHT22;2216;53.806;11.598;2022-12-11T17:08:43;-0.40;81.50
4406;DHT22;2216;53.806;11.598;2022-12-11T17:11:12;-0.40;81.50
4406;DHT22;2216;53.806;11.598;2022-12-11T17:13:43;-0.40;81.60
4406;DHT22;2216;53.806;11.598;2022-12-11T17:16:12;-0.40;81.50
4406;DHT22;2216;53.806;11.598;2022-12-11T17:18:42;-0.40;81.50
4406;DHT22;2216;53.806;11.598;2022-12-11T17:21:10;-0.40;81.50
4406;DHT22;2216;53.806;11.598;2022-12-11T17:23:38;-0.40;81.50
4406;DHT22;2216;53.806;11.598;2022-12-11T17:26:04;-0.40;81.50
4406;DHT22;2216;53.806;11.598;2022-12-11T17:28:33;-0.40;81.50
4406;DHT22;2216;53.806;11.598;2022-12-11T17:31:04;-0.40;81.50
4406;DHT22;2216;53.806;11.598;2022-12-11T17:33:41;-0.40;81.50